INY weather

Public forecast

Using degrees Celsius for public forecast. Weather courtesy of forecast.io.

Closest aviation weather report (METAR) to Inyati Airport

Closest report is Hoedspruit Air Force Base Airport, 30.7 nm (56.8 km) NW. Retrieved 2020/08/13 15:00 UTC (2 hours ago):

FAHS 131500Z AUTO 15082KT //// // ////// 31/M06 Q1018

Closest aviation forecast (TAF) to Inyati Airport

Forecast is more than 12 hours old.

Closest forecast is Hoedspruit Air Force Base Airport, 30.7 nm (56.8 km) NW. Retrieved 2017/05/23 04:01 UTC (3 years ago):

TAF FAHS 230300Z 2304/2315 VRB02KT CAVOK TX29/2312ZTN12/2304Z